sensor_id;sensor_type;location;lat;lon;timestamp;pressure;altitude;pressure_sealevel;temperature;humidity
12913;BME280;6524;51.368;11.984;2023-03-14T00:03:59;98071.59;;;9.66;61.38
12913;BME280;6524;51.368;11.984;2023-03-14T00:08:59;98050.47;;;9.58;61.55
12913;BME280;6524;51.368;11.984;2023-03-14T00:14:00;98052.28;;;9.40;61.98
12913;BME280;6524;51.368;11.984;2023-03-14T00:19:00;98032.22;;;9.83;60.24
12913;BME280;6524;51.368;11.984;2023-03-14T00:24:01;98022.81;;;9.26;61.82
12913;BME280;6524;51.368;11.984;2023-03-14T00:29:01;98024.38;;;9.91;59.38
12913;BME280;6524;51.368;11.984;2023-03-14T00:34:02;98058.69;;;8.92;62.28
12913;BME280;6524;51.368;11.984;2023-03-14T00:39:02;98076.19;;;9.64;60.05
12913;BME280;6524;51.368;11.984;2023-03-14T00:44:03;98068.53;;;10.41;57.62
12913;BME280;6524;51.368;11.984;2023-03-14T00:49:03;98064.69;;;10.69;56.62
12913;BME280;6524;51.368;11.984;2023-03-14T00:54:04;98057.75;;;9.82;59.50
12913;BME280;6524;51.368;11.984;2023-03-14T00:59:04;98078.31;;;9.78;59.99
12913;BME280;6524;51.368;11.984;2023-03-14T05:01:53;97941.63;;;9.40;54.81
12913;BME280;6524;51.368;11.984;2023-03-14T05:06:54;97929.44;;;9.39;54.93
12913;BME280;6524;51.368;11.984;2023-03-14T05:11:54;97924.22;;;9.47;54.31
12913;BME280;6524;51.368;11.984;2023-03-14T05:16:55;97920.88;;;8.65;56.70
12913;BME280;6524;51.368;11.984;2023-03-14T05:21:55;97920.56;;;9.40;54.69
12913;BME280;6524;51.368;11.984;2023-03-14T05:26:56;97920.53;;;8.96;56.27
12913;BME280;6524;51.368;11.984;2023-03-14T05:31:56;97903.03;;;9.30;54.75
12913;BME280;6524;51.368;11.984;2023-03-14T05:36:56;97903.66;;;8.25;58.04
12913;BME280;6524;51.368;11.984;2023-03-14T05:41:57;97896.66;;;8.43;57.59
12913;BME280;6524;51.368;11.984;2023-03-14T05:46:57;97875.63;;;7.88;59.42
12913;BME280;6524;51.368;11.984;2023-03-14T05:51:57;97864.53;;;7.94;59.12
12913;BME280;6524;51.368;11.984;2023-03-14T05:56:58;97872.25;;;8.06;58.83
12913;BME280;6524;51.368;11.984;2023-03-14T06:01:58;97889.44;;;8.46;57.58
12913;BME280;6524;51.368;11.984;2023-03-14T06:06:58;97889.06;;;8.40;57.92
12913;BME280;6524;51.368;11.984;2023-03-14T06:11:59;97889.19;;;8.84;56.73
12913;BME280;6524;51.368;11.984;2023-03-14T06:16:59;97900.28;;;8.15;58.67
12913;BME280;6524;51.368;11.984;2023-03-14T06:22:00;97896.41;;;8.37;58.22
12913;BME280;6524;51.368;11.984;2023-03-14T06:27:00;97912.25;;;8.91;56.33
12913;BME280;6524;51.368;11.984;2023-03-14T06:32:02;97915.91;;;8.62;57.51
12913;BME280;6524;51.368;11.984;2023-03-14T06:37:03;97914.38;;;9.49;54.80
12913;BME280;6524;51.368;11.984;2023-03-14T06:42:03;97919.28;;;9.26;55.55
12913;BME280;6524;51.368;11.984;2023-03-14T06:47:03;97923.25;;;9.48;54.31
12913;BME280;6524;51.368;11.984;2023-03-14T06:52:04;97916.53;;;9.27;54.88
12913;BME280;6524;51.368;11.984;2023-03-14T06:57:04;97927.44;;;9.15;55.09
12913;BME280;6524;51.368;11.984;2023-03-14T07:02:07;97930.31;;;9.21;54.46
12913;BME280;6524;51.368;11.984;2023-03-14T07:07:08;97935.31;;;9.32;53.74
12913;BME280;6524;51.368;11.984;2023-03-14T07:12:08;97934.03;;;10.65;50.52
12913;BME280;6524;51.368;11.984;2023-03-14T07:17:08;97929.50;;;11.49;50.27
12913;BME280;6524;51.368;11.984;2023-03-14T07:22:09;97918.25;;;10.82;49.97
12913;BME280;6524;51.368;11.984;2023-03-14T07:27:10;97916.59;;;11.30;48.19
12913;BME280;6524;51.368;11.984;2023-03-14T07:32:10;97909.66;;;11.45;48.01
12913;BME280;6524;51.368;11.984;2023-03-14T07:37:14;97908.50;;;11.48;48.14
12913;BME280;6524;51.368;11.984;2023-03-14T07:42:15;97912.50;;;11.44;46.87
12913;BME280;6524;51.368;11.984;2023-03-14T07:47:15;97914.09;;;11.61;47.19
12913;BME280;6524;51.368;11.984;2023-03-14T07:52:16;97902.72;;;14.36;42.16
12913;BME280;6524;51.368;11.984;2023-03-14T07:57:16;97911.47;;;15.87;38.34
12913;BME280;6524;51.368;11.984;2023-03-14T08:02:16;97910.69;;;17.03;36.83
12913;BME280;6524;51.368;11.984;2023-03-14T08:07:18;97909.47;;;17.72;34.80
12913;BME280;6524;51.368;11.984;2023-03-14T08:12:18;97897.75;;;15.84;38.09
12913;BME280;6524;51.368;11.984;2023-03-14T08:17:18;97897.22;;;16.43;36.39
12913;BME280;6524;51.368;11.984;2023-03-14T08:22:19;97873.97;;;14.98;38.29
12913;BME280;6524;51.368;11.984;2023-03-14T08:27:19;97892.69;;;13.87;42.05
12913;BME280;6524;51.368;11.984;2023-03-14T08:32:19;97894.88;;;13.99;41.49
12913;BME280;6524;51.368;11.984;2023-03-14T08:37:20;97901.91;;;14.72;40.10
12913;BME280;6524;51.368;11.984;2023-03-14T08:42:20;97899.53;;;14.41;40.71
12913;BME280;6524;51.368;11.984;2023-03-14T08:47:21;97897.38;;;15.65;39.24
12913;BME280;6524;51.368;11.984;2023-03-14T08:52:21;97907.28;;;15.71;38.05
12913;BME280;6524;51.368;11.984;2023-03-14T08:57:22;97906.22;;;13.92;40.95
12913;BME280;6524;51.368;11.984;2023-03-14T09:02:27;97915.69;;;12.96;43.59
12913;BME280;6524;51.368;11.984;2023-03-14T09:07:28;97918.81;;;13.23;42.43
12913;BME280;6524;51.368;11.984;2023-03-14T09:12:28;97928.50;;;15.15;39.91
12913;BME280;6524;51.368;11.984;2023-03-14T09:17:29;97924.28;;;14.63;40.40
12913;BME280;6524;51.368;11.984;2023-03-14T09:22:29;97937.13;;;13.10;43.04
12913;BME280;6524;51.368;11.984;2023-03-14T09:27:30;97928.16;;;14.46;42.27
12913;BME280;6524;51.368;11.984;2023-03-14T09:32:31;97926.56;;;12.47;44.75
12913;BME280;6524;51.368;11.984;2023-03-14T09:37:34;97926.06;;;12.13;46.24
12913;BME280;6524;51.368;11.984;2023-03-14T09:42:36;97927.50;;;11.59;47.23
12913;BME280;6524;51.368;11.984;2023-03-14T09:47:39;97920.22;;;11.70;46.46
12913;BME280;6524;51.368;11.984;2023-03-14T09:52:42;97930.66;;;12.19;46.07
12913;BME280;6524;51.368;11.984;2023-03-14T09:57:46;97941.22;;;11.71;46.91
12913;BME280;6524;51.368;11.984;2023-03-14T10:03:21;97953.78;;;11.53;47.75
12913;BME280;6524;51.368;11.984;2023-03-14T10:08:16;97962.84;;;11.58;47.62
12913;BME280;6524;51.368;11.984;2023-03-14T10:13:17;97957.56;;;11.75;46.99
12913;BME280;6524;51.368;11.984;2023-03-14T10:18:18;97959.22;;;11.76;47.55
12913;BME280;6524;51.368;11.984;2023-03-14T10:23:24;97960.19;;;11.83;47.30
12913;BME280;6524;51.368;11.984;2023-03-14T10:28:30;97951.47;;;11.25;48.41
12913;BME280;6524;51.368;11.984;2023-03-14T10:33:35;97953.59;;;11.30;48.63
12913;BME280;6524;51.368;11.984;2023-03-14T10:38:36;97966.81;;;11.13;49.63
12913;BME280;6524;51.368;11.984;2023-03-14T10:43:37;97957.91;;;11.39;47.88
12913;BME280;6524;51.368;11.984;2023-03-14T10:48:42;97972.25;;;11.77;47.79
12913;BME280;6524;51.368;11.984;2023-03-14T10:58:49;97956.88;;;11.97;47.38
12913;BME280;6524;51.368;11.984;2023-03-14T11:04:38;97945.19;;;11.18;48.45
12913;BME280;6524;51.368;11.984;2023-03-14T11:15:16;97958.88;;;11.62;49.06
12913;BME280;6524;51.368;11.984;2023-03-14T11:20:29;97957.69;;;11.98;49.84
12913;BME280;6524;51.368;11.984;2023-03-14T11:26:04;97966.72;;;14.56;45.71
12913;BME280;6524;51.368;11.984;2023-03-14T11:31:29;97967.13;;;13.71;44.42
12913;BME280;6524;51.368;11.984;2023-03-14T11:36:38;97959.38;;;12.38;47.10
12913;BME280;6524;51.368;11.984;2023-03-14T11:41:40;97963.75;;;12.15;47.93
12913;BME280;6524;51.368;11.984;2023-03-14T11:46:46;97960.13;;;11.99;50.40
12913;BME280;6524;51.368;11.984;2023-03-14T11:52:06;97958.50;;;11.98;50.14
12913;BME280;6524;51.368;11.984;2023-03-14T11:57:14;97954.84;;;12.07;50.22
12913;BME280;6524;51.368;11.984;2023-03-14T12:07:29;97946.97;;;12.30;49.99
12913;BME280;6524;51.368;11.984;2023-03-14T12:12:35;97951.63;;;11.56;51.06
12913;BME280;6524;51.368;11.984;2023-03-14T12:17:41;97953.84;;;12.87;48.96
12913;BME280;6524;51.368;11.984;2023-03-14T12:22:54;97939.28;;;13.37;47.70
12913;BME280;6524;51.368;11.984;2023-03-14T12:43:41;97929.25;;;13.62;45.06
12913;BME280;6524;51.368;11.984;2023-03-14T12:48:44;97918.09;;;13.97;44.35
12913;BME280;6524;51.368;11.984;2023-03-14T13:04:28;97909.56;;;14.46;43.70
12913;BME280;6524;51.368;11.984;2023-03-14T13:14:51;97885.09;;;12.94;46.32
12913;BME280;6524;51.368;11.984;2023-03-14T13:20:01;97878.31;;;13.29;45.00
12913;BME280;6524;51.368;11.984;2023-03-14T13:25:05;97872.16;;;14.11;43.55
12913;BME280;6524;51.368;11.984;2023-03-14T13:36:01;97869.94;;;16.41;38.71
12913;BME280;6524;51.368;11.984;2023-03-14T13:40:43;97877.47;;;14.83;40.87
12913;BME280;6524;51.368;11.984;2023-03-14T13:45:50;97870.06;;;15.22;40.47
12913;BME280;6524;51.368;11.984;2023-03-14T13:55:56;97840.16;;;13.98;41.30
12913;BME280;6524;51.368;11.984;2023-03-14T14:01:03;97848.16;;;13.15;43.70
12913;BME280;6524;51.368;11.984;2023-03-14T14:06:08;97863.19;;;12.77;45.21
12913;BME280;6524;51.368;11.984;2023-03-14T14:11:19;97876.09;;;13.18;44.90
12913;BME280;6524;51.368;11.984;2023-03-14T14:16:24;97872.44;;;12.81;45.33
12913;BME280;6524;51.368;11.984;2023-03-14T14:21:25;97881.38;;;12.49;45.77
12913;BME280;6524;51.368;11.984;2023-03-14T14:26:26;97896.19;;;11.96;47.17
12913;BME280;6524;51.368;11.984;2023-03-14T14:31:26;97898.00;;;12.03;49.94
12913;BME280;6524;51.368;11.984;2023-03-14T14:36:30;97897.78;;;11.66;51.28
12913;BME280;6524;51.368;11.984;2023-03-14T14:41:34;97910.47;;;12.26;50.67
12913;BME280;6524;51.368;11.984;2023-03-14T14:46:36;97948.28;;;10.89;54.18
12913;BME280;6524;51.368;11.984;2023-03-14T14:51:47;97996.34;;;10.58;57.77
12913;BME280;6524;51.368;11.984;2023-03-14T14:56:52;98046.00;;;9.05;63.32
12913;BME280;6524;51.368;11.984;2023-03-14T15:02:01;98118.22;;;7.79;60.53
12913;BME280;6524;51.368;11.984;2023-03-14T15:07:01;98142.34;;;7.34;64.29
12913;BME280;6524;51.368;11.984;2023-03-14T15:12:02;98190.09;;;6.78;63.86
12913;BME280;6524;51.368;11.984;2023-03-14T15:17:03;98209.16;;;6.80;63.40
12913;BME280;6524;51.368;11.984;2023-03-14T15:22:05;98247.25;;;5.89;61.18
12913;BME280;6524;51.368;11.984;2023-03-14T15:27:16;98266.25;;;6.02;60.56
12913;BME280;6524;51.368;11.984;2023-03-14T15:32:17;98295.84;;;5.59;62.09
12913;BME280;6524;51.368;11.984;2023-03-14T15:37:18;98341.16;;;5.94;60.51
12913;BME280;6524;51.368;11.984;2023-03-14T15:42:18;98382.34;;;5.00;60.80
12913;BME280;6524;51.368;11.984;2023-03-14T15:47:18;98407.97;;;4.72;60.91
12913;BME280;6524;51.368;11.984;2023-03-14T15:52:19;98440.41;;;4.33;60.99
12913;BME280;6524;51.368;11.984;2023-03-14T15:57:19;98478.50;;;3.99;61.57
12913;BME280;6524;51.368;11.984;2023-03-14T16:02:20;98522.25;;;3.70;62.84
12913;BME280;6524;51.368;11.984;2023-03-14T16:07:20;98542.41;;;3.80;61.90
12913;BME280;6524;51.368;11.984;2023-03-14T16:12:20;98561.00;;;3.09;62.86
12913;BME280;6524;51.368;11.984;2023-03-14T16:17:21;98612.13;;;2.41;65.59
12913;BME280;6524;51.368;11.984;2023-03-14T16:22:21;98609.25;;;3.16;63.28
12913;BME280;6524;51.368;11.984;2023-03-14T16:27:22;98654.13;;;3.21;64.01
12913;BME280;6524;51.368;11.984;2023-03-14T16:32:22;98658.94;;;3.42;63.71
12913;BME280;6524;51.368;11.984;2023-03-14T16:37:23;98675.94;;;3.06;65.28
12913;BME280;6524;51.368;11.984;2023-03-14T16:42:24;98685.50;;;3.34;63.84
12913;BME280;6524;51.368;11.984;2023-03-14T16:47:24;98716.34;;;4.10;62.49
12913;BME280;6524;51.368;11.984;2023-03-14T16:52:25;98729.13;;;3.88;62.39
12913;BME280;6524;51.368;11.984;2023-03-14T16:57:25;98761.81;;;3.52;63.33
12913;BME280;6524;51.368;11.984;2023-03-14T17:02:25;98795.16;;;2.89;63.86
12913;BME280;6524;51.368;11.984;2023-03-14T17:07:26;98808.13;;;2.91;64.24
12913;BME280;6524;51.368;11.984;2023-03-14T17:12:26;98828.53;;;3.13;63.04
12913;BME280;6524;51.368;11.984;2023-03-14T17:17:27;98841.22;;;2.45;63.03
12913;BME280;6524;51.368;11.984;2023-03-14T17:22:27;98868.91;;;2.61;62.27
12913;BME280;6524;51.368;11.984;2023-03-14T17:27:30;98908.28;;;2.57;61.43
12913;BME280;6524;51.368;11.984;2023-03-14T17:32:31;98926.19;;;2.63;60.49
12913;BME280;6524;51.368;11.984;2023-03-14T17:37:34;98939.03;;;2.66;59.93
12913;BME280;6524;51.368;11.984;2023-03-14T17:43:09;98953.94;;;3.10;58.18
12913;BME280;6524;51.368;11.984;2023-03-14T17:48:10;98957.66;;;3.50;55.63
12913;BME280;6524;51.368;11.984;2023-03-14T17:53:10;98995.31;;;3.16;56.62
12913;BME280;6524;51.368;11.984;2023-03-14T17:58:10;99001.22;;;3.04;56.45
12913;BME280;6524;51.368;11.984;2023-03-14T18:03:12;99017.41;;;3.55;55.26
12913;BME280;6524;51.368;11.984;2023-03-14T18:08:30;99045.28;;;3.69;53.74
12913;BME280;6524;51.368;11.984;2023-03-14T18:13:39;99065.63;;;3.94;53.30
12913;BME280;6524;51.368;11.984;2023-03-14T18:18:45;99078.19;;;3.57;53.64
12913;BME280;6524;51.368;11.984;2023-03-14T18:23:49;99085.69;;;3.77;52.57
12913;BME280;6524;51.368;11.984;2023-03-14T18:28:51;99104.13;;;3.60;53.00
12913;BME280;6524;51.368;11.984;2023-03-14T18:33:57;99111.97;;;3.90;53.15
12913;BME280;6524;51.368;11.984;2023-03-14T18:39:02;99118.56;;;3.81;52.86
12913;BME280;6524;51.368;11.984;2023-03-14T18:44:05;99132.34;;;3.84;53.62
12913;BME280;6524;51.368;11.984;2023-03-14T18:49:11;99142.66;;;3.87;54.68
12913;BME280;6524;51.368;11.984;2023-03-14T18:54:13;99147.91;;;3.55;55.40
12913;BME280;6524;51.368;11.984;2023-03-14T18:59:16;99165.50;;;4.13;54.12
12913;BME280;6524;51.368;11.984;2023-03-14T19:04:17;99164.72;;;3.65;54.41
12913;BME280;6524;51.368;11.984;2023-03-14T19:09:17;99170.25;;;3.91;53.40
12913;BME280;6524;51.368;11.984;2023-03-14T19:14:18;99184.22;;;3.60;52.47
12913;BME280;6524;51.368;11.984;2023-03-14T19:19:19;99197.63;;;3.38;53.32
12913;BME280;6524;51.368;11.984;2023-03-14T19:24:20;99219.47;;;3.98;51.84
12913;BME280;6524;51.368;11.984;2023-03-14T19:29:21;99243.22;;;3.94;50.88
12913;BME280;6524;51.368;11.984;2023-03-14T19:34:22;99257.56;;;3.87;51.90
12913;BME280;6524;51.368;11.984;2023-03-14T19:39:22;99260.94;;;3.89;50.99
12913;BME280;6524;51.368;11.984;2023-03-14T19:44:24;99271.69;;;3.82;50.69
12913;BME280;6524;51.368;11.984;2023-03-14T19:49:25;99285.94;;;3.12;50.98
12913;BME280;6524;51.368;11.984;2023-03-14T19:54:26;99290.19;;;3.30;51.19
12913;BME280;6524;51.368;11.984;2023-03-14T19:59:26;99306.47;;;3.18;51.43
12913;BME280;6524;51.368;11.984;2023-03-14T20:04:27;99326.19;;;2.73;51.71
12913;BME280;6524;51.368;11.984;2023-03-14T20:09:27;99334.75;;;2.93;51.11
12913;BME280;6524;51.368;11.984;2023-03-14T20:14:27;99359.75;;;2.97;48.95
12913;BME280;6524;51.368;11.984;2023-03-14T20:19:28;99356.34;;;3.63;48.73
12913;BME280;6524;51.368;11.984;2023-03-14T20:24:29;99362.50;;;3.28;50.06
12913;BME280;6524;51.368;11.984;2023-03-14T20:29:31;99362.72;;;3.24;51.60
12913;BME280;6524;51.368;11.984;2023-03-14T20:34:31;99367.25;;;4.02;49.76
12913;BME280;6524;51.368;11.984;2023-03-14T20:39:33;99372.75;;;3.98;50.58
12913;BME280;6524;51.368;11.984;2023-03-14T20:44:34;99394.56;;;3.97;50.75
12913;BME280;6524;51.368;11.984;2023-03-14T20:49:34;99387.16;;;2.34;53.42
12913;BME280;6524;51.368;11.984;2023-03-14T20:54:34;99408.13;;;3.54;51.08
12913;BME280;6524;51.368;11.984;2023-03-14T20:59:35;99414.66;;;3.46;50.32
12913;BME280;6524;51.368;11.984;2023-03-14T21:04:35;99424.66;;;3.88;49.21
12913;BME280;6524;51.368;11.984;2023-03-14T21:09:36;99432.41;;;3.90;48.96
12913;BME280;6524;51.368;11.984;2023-03-14T21:14:37;99442.72;;;3.75;48.90
12913;BME280;6524;51.368;11.984;2023-03-14T21:19:37;99454.13;;;3.22;49.71
12913;BME280;6524;51.368;11.984;2023-03-14T21:24:40;99464.28;;;3.28;49.83
12913;BME280;6524;51.368;11.984;2023-03-14T21:29:40;99463.47;;;2.92;50.46
12913;BME280;6524;51.368;11.984;2023-03-14T21:34:40;99475.16;;;3.19;49.43
12913;BME280;6524;51.368;11.984;2023-03-14T21:39:41;99481.22;;;2.66;50.59
12913;BME280;6524;51.368;11.984;2023-03-14T21:44:41;99489.78;;;3.22;49.33
12913;BME280;6524;51.368;11.984;2023-03-14T21:49:48;99495.50;;;3.13;49.99
12913;BME280;6524;51.368;11.984;2023-03-14T21:54:49;99500.34;;;3.38;49.47
12913;BME280;6524;51.368;11.984;2023-03-14T21:59:49;99512.13;;;3.27;49.08
12913;BME280;6524;51.368;11.984;2023-03-14T22:04:50;99518.44;;;3.23;49.80
12913;BME280;6524;51.368;11.984;2023-03-14T22:09:51;99528.47;;;3.31;49.09
12913;BME280;6524;51.368;11.984;2023-03-14T22:14:52;99528.41;;;2.79;50.69
12913;BME280;6524;51.368;11.984;2023-03-14T22:19:52;99534.78;;;1.13;53.77
12913;BME280;6524;51.368;11.984;2023-03-14T22:24:53;99539.84;;;2.18;53.24
12913;BME280;6524;51.368;11.984;2023-03-14T22:29:53;99560.44;;;2.04;53.35
12913;BME280;6524;51.368;11.984;2023-03-14T22:34:53;99566.50;;;1.63;55.23
12913;BME280;6524;51.368;11.984;2023-03-14T22:39:54;99574.38;;;1.82;54.71
12913;BME280;6524;51.368;11.984;2023-03-14T22:44:54;99594.81;;;2.12;53.27
12913;BME280;6524;51.368;11.984;2023-03-14T22:49:54;99595.63;;;1.93;52.98
12913;BME280;6524;51.368;11.984;2023-03-14T22:54:55;99602.47;;;2.94;51.10
12913;BME280;6524;51.368;11.984;2023-03-14T22:59:55;99600.41;;;3.00;50.75
12913;BME280;6524;51.368;11.984;2023-03-14T23:04:55;99607.88;;;2.70;51.70
12913;BME280;6524;51.368;11.984;2023-03-14T23:09:56;99609.84;;;2.84;51.91
12913;BME280;6524;51.368;11.984;2023-03-14T23:14:56;99619.69;;;2.39;52.24
12913;BME280;6524;51.368;11.984;2023-03-14T23:19:57;99614.59;;;2.36;52.55
12913;BME280;6524;51.368;11.984;2023-03-14T23:24:59;99628.03;;;2.07;52.20
12913;BME280;6524;51.368;11.984;2023-03-14T23:30:01;99619.94;;;2.13;51.50
12913;BME280;6524;51.368;11.984;2023-03-14T23:35:02;99628.13;;;2.24;51.04
12913;BME280;6524;51.368;11.984;2023-03-14T23:40:03;99633.69;;;2.16;51.16
12913;BME280;6524;51.368;11.984;2023-03-14T23:45:05;99639.81;;;2.56;50.57
12913;BME280;6524;51.368;11.984;2023-03-14T23:50:06;99652.97;;;2.33;50.26
12913;BME280;6524;51.368;11.984;2023-03-14T23:55:07;99662.47;;;2.34;49.76
